sensor_id;sensor_type;location;lat;lon;timestamp;P1;durP1;ratioP1;P2;durP2;ratioP2
21337;SDS011;72379;50.880;4.350;2023-11-22T00:00:55;37.87;;;17.47;;
21337;SDS011;72379;50.880;4.350;2023-11-22T00:03:21;36.37;;;17.83;;
21337;SDS011;72379;50.880;4.350;2023-11-22T00:05:49;39.53;;;17.33;;
21337;SDS011;72379;50.880;4.350;2023-11-22T00:08:15;37.17;;;17.17;;
21337;SDS011;72379;50.880;4.350;2023-11-22T00:10:41;40.47;;;18.10;;
21337;SDS011;72379;50.880;4.350;2023-11-22T00:13:07;38.63;;;17.10;;
21337;SDS011;72379;50.880;4.350;2023-11-22T00:15:33;39.00;;;17.20;;
21337;SDS011;72379;50.880;4.350;2023-11-22T00:18:01;39.07;;;18.13;;
21337;SDS011;72379;50.880;4.350;2023-11-22T00:20:29;36.60;;;15.30;;
21337;SDS011;72379;50.880;4.350;2023-11-22T00:22:55;42.63;;;17.60;;
21337;SDS011;72379;50.880;4.350;2023-11-22T00:25:21;40.30;;;18.03;;
21337;SDS011;72379;50.880;4.350;2023-11-22T00:27:48;39.03;;;17.90;;
21337;SDS011;72379;50.880;4.350;2023-11-22T00:30:14;39.40;;;16.37;;
21337;SDS011;72379;50.880;4.350;2023-11-22T00:32:40;39.50;;;18.40;;
21337;SDS011;72379;50.880;4.350;2023-11-22T00:35:06;39.13;;;17.47;;
21337;SDS011;72379;50.880;4.350;2023-11-22T00:37:35;40.97;;;17.63;;
21337;SDS011;72379;50.880;4.350;2023-11-22T00:40:01;36.83;;;17.30;;
21337;SDS011;72379;50.880;4.350;2023-11-22T00:42:35;35.87;;;17.17;;
21337;SDS011;72379;50.880;4.350;2023-11-22T00:45:05;43.60;;;18.97;;
21337;SDS011;72379;50.880;4.350;2023-11-22T00:47:32;42.87;;;18.03;;
21337;SDS011;72379;50.880;4.350;2023-11-22T00:49:58;45.87;;;18.77;;
21337;SDS011;72379;50.880;4.350;2023-11-22T00:52:25;44.07;;;16.43;;
21337;SDS011;72379;50.880;4.350;2023-11-22T00:54:51;42.37;;;18.37;;
21337;SDS011;72379;50.880;4.350;2023-11-22T00:57:16;38.40;;;16.83;;
21337;SDS011;72379;50.880;4.350;2023-11-22T00:59:43;37.30;;;16.10;;
21337;SDS011;72379;50.880;4.350;2023-11-22T01:02:09;39.93;;;18.07;;
21337;SDS011;72379;50.880;4.350;2023-11-22T01:04:34;39.83;;;17.83;;
21337;SDS011;72379;50.880;4.350;2023-11-22T01:07:03;39.40;;;17.77;;
21337;SDS011;72379;50.880;4.350;2023-11-22T01:09:32;42.37;;;17.70;;
21337;SDS011;72379;50.880;4.350;2023-11-22T01:11:58;39.00;;;16.67;;
21337;SDS011;72379;50.880;4.350;2023-11-22T01:14:26;43.23;;;17.87;;
21337;SDS011;72379;50.880;4.350;2023-11-22T01:16:53;37.70;;;17.93;;
21337;SDS011;72379;50.880;4.350;2023-11-22T01:19:22;40.80;;;17.43;;
21337;SDS011;72379;50.880;4.350;2023-11-22T01:21:48;38.00;;;16.30;;
21337;SDS011;72379;50.880;4.350;2023-11-22T01:24:13;43.23;;;19.00;;
21337;SDS011;72379;50.880;4.350;2023-11-22T01:26:39;37.83;;;16.40;;
21337;SDS011;72379;50.880;4.350;2023-11-22T01:29:05;41.63;;;16.37;;
21337;SDS011;72379;50.880;4.350;2023-11-22T01:31:31;42.97;;;17.90;;
21337;SDS011;72379;50.880;4.350;2023-11-22T01:33:57;40.20;;;16.77;;
21337;SDS011;72379;50.880;4.350;2023-11-22T01:36:24;34.33;;;16.27;;
21337;SDS011;72379;50.880;4.350;2023-11-22T01:38:50;42.50;;;17.20;;
21337;SDS011;72379;50.880;4.350;2023-11-22T01:41:17;39.83;;;17.50;;
21337;SDS011;72379;50.880;4.350;2023-11-22T01:43:44;38.53;;;17.30;;
21337;SDS011;72379;50.880;4.350;2023-11-22T01:46:22;35.03;;;15.90;;
21337;SDS011;72379;50.880;4.350;2023-11-22T01:48:50;41.70;;;16.97;;
21337;SDS011;72379;50.880;4.350;2023-11-22T01:51:23;43.07;;;17.67;;
21337;SDS011;72379;50.880;4.350;2023-11-22T01:53:51;42.20;;;18.50;;
21337;SDS011;72379;50.880;4.350;2023-11-22T01:56:20;41.87;;;17.33;;
21337;SDS011;72379;50.880;4.350;2023-11-22T01:58:47;37.20;;;17.17;;
21337;SDS011;72379;50.880;4.350;2023-11-22T02:01:17;40.27;;;17.80;;
21337;SDS011;72379;50.880;4.350;2023-11-22T02:03:45;41.37;;;17.13;;
21337;SDS011;72379;50.880;4.350;2023-11-22T02:06:12;37.23;;;17.30;;
21337;SDS011;72379;50.880;4.350;2023-11-22T02:08:41;38.40;;;16.87;;
21337;SDS011;72379;50.880;4.350;2023-11-22T02:11:09;39.03;;;16.23;;
21337;SDS011;72379;50.880;4.350;2023-11-22T02:13:35;39.07;;;16.07;;
21337;SDS011;72379;50.880;4.350;2023-11-22T02:16:11;36.43;;;16.43;;
21337;SDS011;72379;50.880;4.350;2023-11-22T02:18:37;38.83;;;15.97;;
21337;SDS011;72379;50.880;4.350;2023-11-22T02:21:02;35.37;;;16.90;;
21337;SDS011;72379;50.880;4.350;2023-11-22T02:23:29;37.97;;;16.90;;
21337;SDS011;72379;50.880;4.350;2023-11-22T02:25:54;35.93;;;17.17;;
21337;SDS011;72379;50.880;4.350;2023-11-22T02:28:20;37.80;;;16.37;;
21337;SDS011;72379;50.880;4.350;2023-11-22T02:30:54;36.33;;;15.33;;
21337;SDS011;72379;50.880;4.350;2023-11-22T02:33:19;39.03;;;16.13;;
21337;SDS011;72379;50.880;4.350;2023-11-22T02:35:46;38.77;;;16.87;;
21337;SDS011;72379;50.880;4.350;2023-11-22T02:38:14;38.87;;;16.73;;
21337;SDS011;72379;50.880;4.350;2023-11-22T02:40:39;35.80;;;16.20;;
21337;SDS011;72379;50.880;4.350;2023-11-22T02:43:06;40.77;;;17.47;;
21337;SDS011;72379;50.880;4.350;2023-11-22T02:45:34;35.97;;;16.67;;
21337;SDS011;72379;50.880;4.350;2023-11-22T02:48:13;36.53;;;16.90;;
21337;SDS011;72379;50.880;4.350;2023-11-22T02:50:39;40.77;;;17.37;;
21337;SDS011;72379;50.880;4.350;2023-11-22T02:53:04;39.27;;;18.13;;
21337;SDS011;72379;50.880;4.350;2023-11-22T02:55:36;43.53;;;18.70;;
21337;SDS011;72379;50.880;4.350;2023-11-22T02:58:02;40.87;;;17.33;;
21337;SDS011;72379;50.880;4.350;2023-11-22T03:00:28;44.10;;;17.90;;
21337;SDS011;72379;50.880;4.350;2023-11-22T03:03:00;39.93;;;17.37;;
21337;SDS011;72379;50.880;4.350;2023-11-22T03:05:35;41.43;;;17.63;;
21337;SDS011;72379;50.880;4.350;2023-11-22T03:08:04;40.03;;;17.23;;
21337;SDS011;72379;50.880;4.350;2023-11-22T03:10:32;44.40;;;18.97;;
21337;SDS011;72379;50.880;4.350;2023-11-22T03:13:12;40.50;;;18.43;;
21337;SDS011;72379;50.880;4.350;2023-11-22T03:15:37;39.37;;;18.07;;
21337;SDS011;72379;50.880;4.350;2023-11-22T03:18:04;41.30;;;17.57;;
21337;SDS011;72379;50.880;4.350;2023-11-22T03:20:31;43.70;;;17.50;;
21337;SDS011;72379;50.880;4.350;2023-11-22T03:22:58;40.20;;;18.93;;
21337;SDS011;72379;50.880;4.350;2023-11-22T03:25:27;43.00;;;15.43;;
21337;SDS011;72379;50.880;4.350;2023-11-22T03:27:53;47.03;;;18.67;;
21337;SDS011;72379;50.880;4.350;2023-11-22T03:30:20;41.67;;;18.13;;
21337;SDS011;72379;50.880;4.350;2023-11-22T03:32:46;46.67;;;18.97;;
21337;SDS011;72379;50.880;4.350;2023-11-22T03:35:11;44.60;;;15.27;;
21337;SDS011;72379;50.880;4.350;2023-11-22T03:37:37;44.40;;;18.70;;
21337;SDS011;72379;50.880;4.350;2023-11-22T03:40:03;48.10;;;18.70;;
21337;SDS011;72379;50.880;4.350;2023-11-22T03:42:29;41.03;;;19.17;;
21337;SDS011;72379;50.880;4.350;2023-11-22T03:45:01;42.93;;;19.07;;
21337;SDS011;72379;50.880;4.350;2023-11-22T03:47:27;47.53;;;19.43;;
21337;SDS011;72379;50.880;4.350;2023-11-22T03:49:53;35.10;;;15.90;;
21337;SDS011;72379;50.880;4.350;2023-11-22T03:52:24;49.13;;;20.90;;
21337;SDS011;72379;50.880;4.350;2023-11-22T03:54:51;51.27;;;21.30;;
21337;SDS011;72379;50.880;4.350;2023-11-22T03:57:17;49.70;;;20.93;;
21337;SDS011;72379;50.880;4.350;2023-11-22T03:59:43;51.97;;;19.90;;
21337;SDS011;72379;50.880;4.350;2023-11-22T04:02:09;46.37;;;20.47;;
21337;SDS011;72379;50.880;4.350;2023-11-22T04:04:35;56.63;;;21.30;;
21337;SDS011;72379;50.880;4.350;2023-11-22T04:07:02;55.10;;;22.23;;
21337;SDS011;72379;50.880;4.350;2023-11-22T04:09:28;56.87;;;21.83;;
21337;SDS011;72379;50.880;4.350;2023-11-22T04:11:55;57.30;;;22.40;;
21337;SDS011;72379;50.880;4.350;2023-11-22T04:14:21;58.33;;;22.97;;
21337;SDS011;72379;50.880;4.350;2023-11-22T04:16:47;52.80;;;20.80;;
21337;SDS011;72379;50.880;4.350;2023-11-22T04:19:13;51.47;;;22.20;;
21337;SDS011;72379;50.880;4.350;2023-11-22T04:21:39;52.67;;;21.57;;
21337;SDS011;72379;50.880;4.350;2023-11-22T04:24:05;55.07;;;22.10;;
21337;SDS011;72379;50.880;4.350;2023-11-22T04:26:31;39.83;;;16.60;;
21337;SDS011;72379;50.880;4.350;2023-11-22T04:28:57;51.57;;;20.93;;
21337;SDS011;72379;50.880;4.350;2023-11-22T04:31:23;49.57;;;20.77;;
21337;SDS011;72379;50.880;4.350;2023-11-22T04:33:49;58.50;;;26.70;;
21337;SDS011;72379;50.880;4.350;2023-11-22T04:36:15;47.33;;;19.73;;
21337;SDS011;72379;50.880;4.350;2023-11-22T04:38:41;50.27;;;21.63;;
21337;SDS011;72379;50.880;4.350;2023-11-22T04:41:08;53.57;;;20.23;;
21337;SDS011;72379;50.880;4.350;2023-11-22T04:43:34;50.97;;;20.63;;
21337;SDS011;72379;50.880;4.350;2023-11-22T04:46:00;48.63;;;20.53;;
21337;SDS011;72379;50.880;4.350;2023-11-22T04:48:26;48.27;;;20.40;;
21337;SDS011;72379;50.880;4.350;2023-11-22T04:50:51;49.40;;;20.30;;
21337;SDS011;72379;50.880;4.350;2023-11-22T04:53:18;52.67;;;21.93;;
21337;SDS011;72379;50.880;4.350;2023-11-22T04:55:44;51.00;;;21.27;;
21337;SDS011;72379;50.880;4.350;2023-11-22T04:58:10;46.40;;;19.77;;
21337;SDS011;72379;50.880;4.350;2023-11-22T05:00:36;51.40;;;21.00;;
21337;SDS011;72379;50.880;4.350;2023-11-22T05:03:08;51.30;;;20.57;;
21337;SDS011;72379;50.880;4.350;2023-11-22T05:05:40;50.63;;;21.37;;
21337;SDS011;72379;50.880;4.350;2023-11-22T05:08:06;42.93;;;17.17;;
21337;SDS011;72379;50.880;4.350;2023-11-22T05:10:31;54.37;;;22.07;;
21337;SDS011;72379;50.880;4.350;2023-11-22T05:12:57;47.30;;;20.80;;
21337;SDS011;72379;50.880;4.350;2023-11-22T05:15:26;44.37;;;19.47;;
21337;SDS011;72379;50.880;4.350;2023-11-22T05:17:52;47.47;;;20.57;;
21337;SDS011;72379;50.880;4.350;2023-11-22T05:20:18;49.27;;;20.37;;
21337;SDS011;72379;50.880;4.350;2023-11-22T05:22:44;46.87;;;21.07;;
21337;SDS011;72379;50.880;4.350;2023-11-22T05:25:10;43.00;;;19.43;;
21337;SDS011;72379;50.880;4.350;2023-11-22T05:27:36;51.13;;;20.30;;
21337;SDS011;72379;50.880;4.350;2023-11-22T05:30:02;48.80;;;21.07;;
21337;SDS011;72379;50.880;4.350;2023-11-22T05:32:29;47.23;;;20.27;;
21337;SDS011;72379;50.880;4.350;2023-11-22T05:34:56;49.07;;;19.03;;
21337;SDS011;72379;50.880;4.350;2023-11-22T05:37:22;48.43;;;19.87;;
21337;SDS011;72379;50.880;4.350;2023-11-22T05:39:48;49.73;;;20.27;;
21337;SDS011;72379;50.880;4.350;2023-11-22T05:42:13;54.63;;;20.93;;
21337;SDS011;72379;50.880;4.350;2023-11-22T05:44:39;48.77;;;19.47;;
21337;SDS011;72379;50.880;4.350;2023-11-22T05:47:05;51.53;;;20.93;;
21337;SDS011;72379;50.880;4.350;2023-11-22T05:49:32;58.60;;;20.73;;
21337;SDS011;72379;50.880;4.350;2023-11-22T05:51:58;50.87;;;20.53;;
21337;SDS011;72379;50.880;4.350;2023-11-22T05:54:24;53.27;;;21.50;;
21337;SDS011;72379;50.880;4.350;2023-11-22T05:56:50;55.70;;;21.10;;
21337;SDS011;72379;50.880;4.350;2023-11-22T05:59:16;55.17;;;21.43;;
21337;SDS011;72379;50.880;4.350;2023-11-22T06:01:42;52.77;;;21.77;;
21337;SDS011;72379;50.880;4.350;2023-11-22T06:04:08;56.13;;;22.53;;
21337;SDS011;72379;50.880;4.350;2023-11-22T06:06:34;56.30;;;23.07;;
21337;SDS011;72379;50.880;4.350;2023-11-22T06:09:01;59.53;;;22.80;;
21337;SDS011;72379;50.880;4.350;2023-11-22T06:11:27;53.37;;;21.90;;
21337;SDS011;72379;50.880;4.350;2023-11-22T06:13:52;56.13;;;21.53;;
21337;SDS011;72379;50.880;4.350;2023-11-22T06:16:18;53.67;;;21.37;;
21337;SDS011;72379;50.880;4.350;2023-11-22T06:18:44;55.10;;;22.70;;
21337;SDS011;72379;50.880;4.350;2023-11-22T06:21:10;59.57;;;22.47;;
21337;SDS011;72379;50.880;4.350;2023-11-22T06:23:36;56.77;;;22.57;;
21337;SDS011;72379;50.880;4.350;2023-11-22T06:26:02;55.80;;;21.73;;
21337;SDS011;72379;50.880;4.350;2023-11-22T06:28:30;53.93;;;22.50;;
21337;SDS011;72379;50.880;4.350;2023-11-22T06:30:56;57.87;;;23.13;;
21337;SDS011;72379;50.880;4.350;2023-11-22T06:33:22;55.70;;;22.93;;
21337;SDS011;72379;50.880;4.350;2023-11-22T06:35:48;53.20;;;21.30;;
21337;SDS011;72379;50.880;4.350;2023-11-22T06:38:14;53.50;;;21.07;;
21337;SDS011;72379;50.880;4.350;2023-11-22T06:40:41;50.67;;;21.33;;
21337;SDS011;72379;50.880;4.350;2023-11-22T06:43:07;51.93;;;21.30;;
21337;SDS011;72379;50.880;4.350;2023-11-22T06:45:33;52.33;;;21.40;;
21337;SDS011;72379;50.880;4.350;2023-11-22T06:47:58;57.47;;;21.93;;
21337;SDS011;72379;50.880;4.350;2023-11-22T06:50:24;52.97;;;21.80;;
21337;SDS011;72379;50.880;4.350;2023-11-22T06:52:50;45.43;;;18.70;;
21337;SDS011;72379;50.880;4.350;2023-11-22T06:55:18;48.87;;;21.07;;
21337;SDS011;72379;50.880;4.350;2023-11-22T06:57:44;51.90;;;21.67;;
21337;SDS011;72379;50.880;4.350;2023-11-22T07:00:10;49.70;;;19.97;;
21337;SDS011;72379;50.880;4.350;2023-11-22T07:02:37;48.07;;;21.57;;
21337;SDS011;72379;50.880;4.350;2023-11-22T07:05:04;42.33;;;18.90;;
21337;SDS011;72379;50.880;4.350;2023-11-22T07:07:36;49.10;;;21.60;;
21337;SDS011;72379;50.880;4.350;2023-11-22T07:10:02;45.60;;;20.37;;
21337;SDS011;72379;50.880;4.350;2023-11-22T07:12:32;54.27;;;21.93;;
21337;SDS011;72379;50.880;4.350;2023-11-22T07:15:02;44.87;;;18.93;;
21337;SDS011;72379;50.880;4.350;2023-11-22T07:17:28;48.13;;;20.20;;
21337;SDS011;72379;50.880;4.350;2023-11-22T07:19:54;49.37;;;20.70;;
21337;SDS011;72379;50.880;4.350;2023-11-22T07:22:20;49.83;;;19.90;;
21337;SDS011;72379;50.880;4.350;2023-11-22T07:24:47;52.83;;;20.80;;
21337;SDS011;72379;50.880;4.350;2023-11-22T07:27:17;52.57;;;21.33;;
21337;SDS011;72379;50.880;4.350;2023-11-22T07:29:44;50.07;;;21.23;;
21337;SDS011;72379;50.880;4.350;2023-11-22T07:32:10;63.63;;;22.27;;
21337;SDS011;72379;50.880;4.350;2023-11-22T07:34:37;58.00;;;23.23;;
21337;SDS011;72379;50.880;4.350;2023-11-22T07:37:04;52.33;;;22.03;;
21337;SDS011;72379;50.880;4.350;2023-11-22T07:39:33;55.63;;;23.17;;
21337;SDS011;72379;50.880;4.350;2023-11-22T07:42:03;62.53;;;22.67;;
21337;SDS011;72379;50.880;4.350;2023-11-22T07:44:33;55.07;;;23.13;;
21337;SDS011;72379;50.880;4.350;2023-11-22T07:47:03;54.07;;;21.90;;
21337;SDS011;72379;50.880;4.350;2023-11-22T07:49:32;57.20;;;22.80;;
21337;SDS011;72379;50.880;4.350;2023-11-22T07:52:03;60.37;;;22.50;;
21337;SDS011;72379;50.880;4.350;2023-11-22T07:54:30;51.83;;;21.77;;
21337;SDS011;72379;50.880;4.350;2023-11-22T07:56:58;53.50;;;21.57;;
21337;SDS011;72379;50.880;4.350;2023-11-22T07:59:24;58.23;;;22.53;;
21337;SDS011;72379;50.880;4.350;2023-11-22T08:01:50;61.30;;;24.40;;
21337;SDS011;72379;50.880;4.350;2023-11-22T08:04:18;63.37;;;23.03;;
21337;SDS011;72379;50.880;4.350;2023-11-22T08:06:44;65.27;;;25.50;;
21337;SDS011;72379;50.880;4.350;2023-11-22T08:09:10;61.33;;;24.83;;
21337;SDS011;72379;50.880;4.350;2023-11-22T08:11:36;63.40;;;24.47;;
21337;SDS011;72379;50.880;4.350;2023-11-22T08:14:02;67.87;;;25.00;;
21337;SDS011;72379;50.880;4.350;2023-11-22T08:16:28;65.33;;;25.33;;
21337;SDS011;72379;50.880;4.350;2023-11-22T08:18:55;66.40;;;24.70;;
21337;SDS011;72379;50.880;4.350;2023-11-22T08:21:21;70.00;;;26.00;;
21337;SDS011;72379;50.880;4.350;2023-11-22T08:23:48;48.90;;;16.40;;
21337;SDS011;72379;50.880;4.350;2023-11-22T08:26:14;59.53;;;22.67;;
21337;SDS011;72379;50.880;4.350;2023-11-22T08:28:40;55.70;;;20.47;;
21337;SDS011;72379;50.880;4.350;2023-11-22T08:31:06;73.50;;;26.40;;
21337;SDS011;72379;50.880;4.350;2023-11-22T08:33:38;69.23;;;26.77;;
21337;SDS011;72379;50.880;4.350;2023-11-22T08:36:07;70.30;;;26.53;;
21337;SDS011;72379;50.880;4.350;2023-11-22T08:38:34;61.50;;;24.97;;
21337;SDS011;72379;50.880;4.350;2023-11-22T08:41:03;55.33;;;21.53;;
21337;SDS011;72379;50.880;4.350;2023-11-22T08:43:33;59.70;;;23.67;;
21337;SDS011;72379;50.880;4.350;2023-11-22T08:45:59;44.90;;;17.50;;
21337;SDS011;72379;50.880;4.350;2023-11-22T08:48:25;46.90;;;20.03;;
21337;SDS011;72379;50.880;4.350;2023-11-22T08:50:51;42.93;;;18.40;;
21337;SDS011;72379;50.880;4.350;2023-11-22T08:53:18;47.50;;;19.60;;
21337;SDS011;72379;50.880;4.350;2023-11-22T08:55:45;50.07;;;19.23;;
21337;SDS011;72379;50.880;4.350;2023-11-22T08:58:12;47.13;;;18.57;;
21337;SDS011;72379;50.880;4.350;2023-11-22T09:00:38;49.47;;;20.27;;
21337;SDS011;72379;50.880;4.350;2023-11-22T09:03:06;51.13;;;20.47;;
21337;SDS011;72379;50.880;4.350;2023-11-22T09:05:32;51.43;;;21.50;;
21337;SDS011;72379;50.880;4.350;2023-11-22T09:08:00;46.87;;;17.80;;
21337;SDS011;72379;50.880;4.350;2023-11-22T09:10:26;49.60;;;19.30;;
21337;SDS011;72379;50.880;4.350;2023-11-22T09:12:52;45.67;;;19.33;;
21337;SDS011;72379;50.880;4.350;2023-11-22T09:15:17;50.87;;;21.20;;
21337;SDS011;72379;50.880;4.350;2023-11-22T09:17:49;46.03;;;19.63;;
21337;SDS011;72379;50.880;4.350;2023-11-22T09:20:17;47.83;;;19.97;;
21337;SDS011;72379;50.880;4.350;2023-11-22T09:23:01;46.87;;;19.83;;
21337;SDS011;72379;50.880;4.350;2023-11-22T09:25:29;48.57;;;20.83;;
21337;SDS011;72379;50.880;4.350;2023-11-22T09:28:00;46.90;;;20.40;;
21337;SDS011;72379;50.880;4.350;2023-11-22T09:30:27;47.33;;;19.77;;
21337;SDS011;72379;50.880;4.350;2023-11-22T09:33:04;48.30;;;19.90;;
21337;SDS011;72379;50.880;4.350;2023-11-22T09:35:32;52.07;;;20.30;;
21337;SDS011;72379;50.880;4.350;2023-11-22T09:37:59;48.90;;;20.57;;
21337;SDS011;72379;50.880;4.350;2023-11-22T09:40:25;49.67;;;20.13;;
21337;SDS011;72379;50.880;4.350;2023-11-22T09:42:56;54.27;;;22.00;;
21337;SDS011;72379;50.880;4.350;2023-11-22T09:45:22;53.03;;;20.77;;
21337;SDS011;72379;50.880;4.350;2023-11-22T09:47:50;46.53;;;21.57;;
21337;SDS011;72379;50.880;4.350;2023-11-22T09:50:20;50.23;;;21.57;;
21337;SDS011;72379;50.880;4.350;2023-11-22T09:53:11;50.40;;;22.13;;
21337;SDS011;72379;50.880;4.350;2023-11-22T09:55:44;51.50;;;20.47;;
21337;SDS011;72379;50.880;4.350;2023-11-22T09:58:14;52.13;;;22.27;;
21337;SDS011;72379;50.880;4.350;2023-11-22T10:00:42;49.90;;;21.63;;
21337;SDS011;72379;50.880;4.350;2023-11-22T10:03:09;50.20;;;22.90;;
21337;SDS011;72379;50.880;4.350;2023-11-22T10:05:38;51.83;;;22.80;;
21337;SDS011;72379;50.880;4.350;2023-11-22T10:08:07;45.37;;;21.87;;
21337;SDS011;72379;50.880;4.350;2023-11-22T10:10:35;49.93;;;21.00;;
21337;SDS011;72379;50.880;4.350;2023-11-22T10:13:02;52.90;;;21.27;;
21337;SDS011;72379;50.880;4.350;2023-11-22T10:15:28;46.07;;;22.10;;
21337;SDS011;72379;50.880;4.350;2023-11-22T10:17:55;41.77;;;20.03;;
21337;SDS011;72379;50.880;4.350;2023-11-22T10:20:41;52.33;;;21.97;;
21337;SDS011;72379;50.880;4.350;2023-11-22T10:23:11;43.70;;;19.93;;
21337;SDS011;72379;50.880;4.350;2023-11-22T10:28:14;47.03;;;22.03;;
21337;SDS011;72379;50.880;4.350;2023-11-22T10:30:42;48.40;;;22.60;;
21337;SDS011;72379;50.880;4.350;2023-11-22T10:33:09;49.40;;;20.80;;
21337;SDS011;72379;50.880;4.350;2023-11-22T10:35:48;48.73;;;21.23;;
21337;SDS011;72379;50.880;4.350;2023-11-22T10:38:17;51.23;;;21.93;;
21337;SDS011;72379;50.880;4.350;2023-11-22T10:40:44;49.00;;;22.67;;
21337;SDS011;72379;50.880;4.350;2023-11-22T10:43:13;51.80;;;22.50;;
21337;SDS011;72379;50.880;4.350;2023-11-22T10:45:40;46.43;;;21.57;;
21337;SDS011;72379;50.880;4.350;2023-11-22T10:48:14;51.57;;;23.87;;
21337;SDS011;72379;50.880;4.350;2023-11-22T10:50:45;51.57;;;22.50;;
21337;SDS011;72379;50.880;4.350;2023-11-22T10:53:12;44.83;;;21.63;;
21337;SDS011;72379;50.880;4.350;2023-11-22T10:55:45;44.93;;;20.47;;
21337;SDS011;72379;50.880;4.350;2023-11-22T10:58:14;52.53;;;22.17;;
21337;SDS011;72379;50.880;4.350;2023-11-22T11:00:42;44.60;;;20.93;;
21337;SDS011;72379;50.880;4.350;2023-11-22T11:03:11;43.50;;;20.23;;
21337;SDS011;72379;50.880;4.350;2023-11-22T11:05:44;47.40;;;20.83;;
21337;SDS011;72379;50.880;4.350;2023-11-22T11:08:16;43.70;;;20.40;;
21337;SDS011;72379;50.880;4.350;2023-11-22T11:10:45;45.17;;;20.63;;
21337;SDS011;72379;50.880;4.350;2023-11-22T11:13:11;41.57;;;18.23;;
21337;SDS011;72379;50.880;4.350;2023-11-22T11:15:38;39.83;;;18.77;;
21337;SDS011;72379;50.880;4.350;2023-11-22T11:18:09;39.10;;;16.27;;
21337;SDS011;72379;50.880;4.350;2023-11-22T11:20:45;38.70;;;18.33;;
21337;SDS011;72379;50.880;4.350;2023-11-22T11:23:14;36.00;;;17.63;;
21337;SDS011;72379;50.880;4.350;2023-11-22T11:25:44;40.73;;;19.03;;
21337;SDS011;72379;50.880;4.350;2023-11-22T11:28:11;35.83;;;17.57;;
21337;SDS011;72379;50.880;4.350;2023-11-22T11:33:13;33.73;;;16.60;;
21337;SDS011;72379;50.880;4.350;2023-11-22T11:35:47;38.20;;;16.87;;
21337;SDS011;72379;50.880;4.350;2023-11-22T11:38:14;35.83;;;16.93;;
21337;SDS011;72379;50.880;4.350;2023-11-22T11:40:42;42.53;;;18.13;;
21337;SDS011;72379;50.880;4.350;2023-11-22T11:43:10;37.97;;;16.93;;
21337;SDS011;72379;50.880;4.350;2023-11-22T11:45:38;35.50;;;17.20;;
21337;SDS011;72379;50.880;4.350;2023-11-22T11:48:04;40.10;;;18.07;;
21337;SDS011;72379;50.880;4.350;2023-11-22T11:50:31;32.23;;;13.80;;
21337;SDS011;72379;50.880;4.350;2023-11-22T11:52:57;35.63;;;16.73;;
21337;SDS011;72379;50.880;4.350;2023-11-22T11:55:23;36.13;;;16.07;;
21337;SDS011;72379;50.880;4.350;2023-11-22T11:57:53;39.63;;;16.50;;
21337;SDS011;72379;50.880;4.350;2023-11-22T12:00:20;35.13;;;17.53;;
21337;SDS011;72379;50.880;4.350;2023-11-22T12:02:48;37.00;;;16.90;;
21337;SDS011;72379;50.880;4.350;2023-11-22T12:05:14;31.77;;;15.13;;
21337;SDS011;72379;50.880;4.350;2023-11-22T12:07:40;32.90;;;15.67;;
21337;SDS011;72379;50.880;4.350;2023-11-22T12:10:06;30.07;;;13.93;;
21337;SDS011;72379;50.880;4.350;2023-11-22T12:12:34;34.63;;;14.27;;
21337;SDS011;72379;50.880;4.350;2023-11-22T12:15:00;32.50;;;15.47;;
21337;SDS011;72379;50.880;4.350;2023-11-22T12:17:26;33.93;;;14.40;;
21337;SDS011;72379;50.880;4.350;2023-11-22T12:19:53;30.17;;;14.93;;
21337;SDS011;72379;50.880;4.350;2023-11-22T12:22:33;31.73;;;15.07;;
21337;SDS011;72379;50.880;4.350;2023-11-22T12:24:59;31.03;;;15.87;;
21337;SDS011;72379;50.880;4.350;2023-11-22T12:27:24;40.60;;;15.90;;
21337;SDS011;72379;50.880;4.350;2023-11-22T12:29:50;30.03;;;15.27;;
21337;SDS011;72379;50.880;4.350;2023-11-22T12:32:16;33.67;;;14.53;;
21337;SDS011;72379;50.880;4.350;2023-11-22T12:34:51;30.50;;;14.33;;
21337;SDS011;72379;50.880;4.350;2023-11-22T12:37:21;33.73;;;14.00;;
21337;SDS011;72379;50.880;4.350;2023-11-22T12:39:48;32.67;;;12.93;;
21337;SDS011;72379;50.880;4.350;2023-11-22T12:42:14;31.83;;;14.57;;
21337;SDS011;72379;50.880;4.350;2023-11-22T12:44:52;29.63;;;14.30;;
21337;SDS011;72379;50.880;4.350;2023-11-22T12:47:33;25.70;;;11.60;;
21337;SDS011;72379;50.880;4.350;2023-11-22T12:50:03;30.67;;;14.27;;
21337;SDS011;72379;50.880;4.350;2023-11-22T12:52:35;31.60;;;14.93;;
21337;SDS011;72379;50.880;4.350;2023-11-22T12:55:01;31.40;;;15.70;;
21337;SDS011;72379;50.880;4.350;2023-11-22T12:57:29;33.80;;;16.20;;
21337;SDS011;72379;50.880;4.350;2023-11-22T12:59:55;34.47;;;16.27;;
21337;SDS011;72379;50.880;4.350;2023-11-22T13:02:20;30.43;;;15.73;;
21337;SDS011;72379;50.880;4.350;2023-11-22T13:04:46;27.90;;;14.97;;
21337;SDS011;72379;50.880;4.350;2023-11-22T13:07:12;33.53;;;14.53;;
21337;SDS011;72379;50.880;4.350;2023-11-22T13:09:38;26.40;;;13.93;;
21337;SDS011;72379;50.880;4.350;2023-11-22T13:12:04;28.97;;;14.20;;
21337;SDS011;72379;50.880;4.350;2023-11-22T13:14:30;25.20;;;12.67;;
21337;SDS011;72379;50.880;4.350;2023-11-22T13:17:03;31.30;;;15.53;;
21337;SDS011;72379;50.880;4.350;2023-11-22T13:19:32;35.80;;;17.60;;
21337;SDS011;72379;50.880;4.350;2023-11-22T13:22:00;37.17;;;22.10;;
21337;SDS011;72379;50.880;4.350;2023-11-22T13:24:26;33.07;;;14.67;;
21337;SDS011;72379;50.880;4.350;2023-11-22T13:26:51;30.03;;;15.50;;
21337;SDS011;72379;50.880;4.350;2023-11-22T13:29:17;29.20;;;14.30;;
21337;SDS011;72379;50.880;4.350;2023-11-22T13:31:43;29.47;;;14.27;;
21337;SDS011;72379;50.880;4.350;2023-11-22T13:34:10;28.40;;;13.73;;
21337;SDS011;72379;50.880;4.350;2023-11-22T13:36:36;25.77;;;11.97;;
21337;SDS011;72379;50.880;4.350;2023-11-22T13:39:02;25.67;;;13.13;;
21337;SDS011;72379;50.880;4.350;2023-11-22T13:41:30;31.33;;;14.93;;
21337;SDS011;72379;50.880;4.350;2023-11-22T13:43:55;30.47;;;14.10;;
21337;SDS011;72379;50.880;4.350;2023-11-22T13:46:21;31.47;;;14.47;;
21337;SDS011;72379;50.880;4.350;2023-11-22T13:48:46;29.43;;;14.43;;
21337;SDS011;72379;50.880;4.350;2023-11-22T13:51:12;32.03;;;15.83;;
21337;SDS011;72379;50.880;4.350;2023-11-22T13:53:38;33.43;;;15.27;;
21337;SDS011;72379;50.880;4.350;2023-11-22T13:56:08;31.87;;;16.53;;
21337;SDS011;72379;50.880;4.350;2023-11-22T13:58:34;31.93;;;15.77;;
21337;SDS011;72379;50.880;4.350;2023-11-22T14:01:00;34.30;;;16.43;;
21337;SDS011;72379;50.880;4.350;2023-11-22T14:03:26;40.20;;;18.57;;
21337;SDS011;72379;50.880;4.350;2023-11-22T14:05:53;33.33;;;16.10;;
21337;SDS011;72379;50.880;4.350;2023-11-22T14:08:19;31.10;;;13.50;;
21337;SDS011;72379;50.880;4.350;2023-11-22T14:10:45;35.97;;;15.97;;
21337;SDS011;72379;50.880;4.350;2023-11-22T14:13:11;34.87;;;14.70;;
21337;SDS011;72379;50.880;4.350;2023-11-22T14:15:37;29.40;;;13.30;;
21337;SDS011;72379;50.880;4.350;2023-11-22T14:18:03;28.67;;;14.03;;
21337;SDS011;72379;50.880;4.350;2023-11-22T14:20:29;28.33;;;13.47;;
21337;SDS011;72379;50.880;4.350;2023-11-22T14:22:56;26.30;;;13.23;;
21337;SDS011;72379;50.880;4.350;2023-11-22T14:25:22;30.20;;;13.80;;
21337;SDS011;72379;50.880;4.350;2023-11-22T14:27:48;30.50;;;13.87;;